California State Race - INVENTORY

Station: Inventory - T Race

Distance: 1 Miles    

Release: 15-May-2019 07:50

Weather Release:    Arrival:

Wind at Release:     Wind at Arrival:

Temp at Release: °    Temp at Arrival: °

Lofts: 80

Birds: 211

Clocked: 226

Good Luck to Everyone!
Drops Pos Breeder Pigeon Name Color Sex Ent Arrival Speed To Win Eligible
1 Trina Dewitt - CA 1827-AU19-PASO DC C 1 07:56:04.00 290.110 00:00:00 Yes
2 Hayloft - CA 9294-AU19-GSF DC C 1 07:56:14.00 282.353 00:00:10 Yes
3 Jay Page - CA 7819-AU19-FSC BB H 1 07:56:15.00 281.600 00:00:11 Yes
4 Hayloft - CA 9365-AU19-GSF BB H 2 07:56:36.90 266.062 00:00:33 Yes
5 Hayloft - CA 9262-AU19-GSF RC C 3 07:56:57.50 252.934 00:00:54 Yes
6 Gomez Loft - CA 1098-AU19-CHP BBTK H 1 07:57:29.60 234.875 00:01:26 Yes
7 Stanton Woody - CA 80509-AU19-MAN BC H 1 07:58:11.00 215.071 00:02:07 Yes
8 Armando Lopez - CA 1246-AU19-CHP BC C 1 07:58:13.30 214.069 00:02:09 Yes
9 Trina Dewitt - CA 1845-AU19-PASO DC H 2 07:58:29.60 207.221 00:02:26 Yes
10 Hayloft - CA 9254-AU19-GSF BC C 4 07:58:47.00 200.380 00:02:43 Yes
11 Duane Gragg - CA 0997-AU19-KEY BC H 1 07:58:57.50 196.465 00:02:54 Yes
12 Jim Edgeworth - CA 2739-AU19-ARPU BB C 1 07:59:25.00 186.903 00:03:21 Yes
13 Gomez Loft - CA 2426-AU19-CHP BB H 2 07:59:25.50 186.737 00:03:22 Yes
14 Padilla - CA 0729-AU19-SFPC BB C 1 07:59:47.00 179.898 00:03:43 Yes
15 Ron Heiser - CA 0965-AU19-ARPU BC H 1 08:00:03.90 174.863 00:04:00 Yes
16 Hayloft - CA 9339-AU19-GSF BC C 5 08:00:12.20 172.493 00:04:08 Yes
17 Marshall Jespersen - CA 3205-AU19-ARC BB C 1 08:01:09.80 157.659 00:05:06 Yes
18 Fernando Gonzalez - CA 1974-AU19-MTZ BC H 1 08:01:14.70 156.514 00:05:11 Yes
19 C.J. Watkins - CA 1836-AU19-PASO BB C 1 08:01:20.80 155.112 00:05:17 Yes
20 Mike Gonigan - CA 80309-AU19-MAN BB H 1 08:01:36.60 151.593 00:05:33 Yes
21 Hung-Wen Hung - CA 19080-AU19-SVS BB H 1 08:01:38.20 151.246 00:05:34 Yes
22 Denis Eastwood - CA 0126-AU19-HANG BBWF C 1 08:02:34.60 139.942 00:06:31 Yes
23 Andrew Broster - CA 3740-AU19-ARC BB H 1 08:03:52.50 126.847 00:07:48 Yes
24 Dino D'ercole - CA 0506-AU19-SFR BB H 1 08:04:27.70 121.701 00:08:24 Yes
25 Mike Belus - CA 0715-AU19-BPRC RC 0 1 08:04:32.00 121.101 00:08:28 Yes
26 Partridge Family Loft - CA 1740-AU19-PASO BC C 1 08:04:37.10 120.397 00:08:33 Yes
27 Dan Mello - CA 80270-AU19-MAN BC H 1 08:05:33.90 113.074 00:09:30 Yes
28 Gary Robins - CA 0115-AU19-OCF BC C 1 08:05:41.70 112.138 00:09:38 Yes
29 Hung-Wen Hung - CA 19081-AU19-SVS BB C 2 08:05:43.30 111.947 00:09:39 Yes
30 Jim Vander Heide - CA 0004-AU19-OCF BC H 1 08:05:52.40 110.878 00:09:48 Yes
31 Jenkins Racing - CA 0760-AU19-JENK BC C 1 08:06:43.90 105.190 00:10:40 Yes
32 Sal Perez - CA 14062-AU19-AA BC H 1 08:06:57.60 103.774 00:10:54 Yes
33 Silicon Valley Syndicates - CA 19070-AU19-SVS BB H 1 08:07:08.60 102.664 00:11:05 Yes
34 John Hedderson - CA 7623-AU19-FSC BB H 1 08:07:35.30 100.066 00:11:31 Yes
35 Dino D'ercole - CA 0503-AU19-SFR BB H 2 08:08:23.50 95.696 00:12:19 Yes
36 Steve Sterchi - CA 0990-AU19-SR BB H 1 08:08:32.30 94.938 00:12:28 Yes
37 Andrew Broster - CA 3750-AU19-ARC BC H 2 08:08:48.50 93.576 00:12:44 Yes
38 Dan Severns - CA 80739-AU19-MAN BB H 1 08:08:52.00 93.286 00:12:48 Yes
39 Hung-Wen Hung - CA 19071-AU19-SVS BB H 3 08:09:24.40 90.690 00:13:20 Yes
40 Laszlo Zugor - CA 5275-AU19-SRP RC C 1 08:09:57.10 88.213 00:13:53 Yes
41 Stanton Woody - CA 80510-AU19-MAN BB H 2 08:09:58.20 88.132 00:13:54 Yes
42 Jim Vander Heide - CA 0123-AU19-OCF DCSP H 2 08:10:35.90 85.444 00:14:32 Yes
43 Partridge Family Loft - CA 1741-AU19-PASO BC H 2 08:11:28.10 81.981 00:15:24 Yes
44 De Vriend Lofts - CA 5768-AU19-FSC BBPH H 1 08:11:32.40 81.708 00:15:28 Yes
45 Silicon Valley Syndicates - CA 19065-AU19-SVS BBWF C 2 08:11:41.90 81.112 00:15:38 Yes
46 Brady Harper - CA 22534-AU19-ARPU BB H 1 08:12:05.60 79.662 00:16:02 Yes
47 Jim Edgeworth - CA 2740-AU19-ARPU BB H 2 08:12:10.00 79.398 00:16:06 Yes
48 Osty Loft - CA 6638-AU19-JEDD BCWF H 1 08:12:16.00 79.042 00:16:12 Yes
49 Osty Loft - CA 4583-AU19-JEDD BB C 2 08:12:59.80 76.533 00:16:56 Yes
50 Humberto Saenz - CA 9054-AU19-CGR BCSP H 1 08:13:11.20 75.906 00:17:07 Yes
51 Zack Jones - CA 1972-AU19-MTZ BC C 1 08:14:06.50 73.004 00:18:02 Yes
52 Jim Looper - CA 1039-AU19-LOOP BB C 1 08:16:05.60 67.450 00:20:02 Yes
53 Chuck Scurini - CA 90219-AU19-SOC BCWF H 1 08:16:18.90 66.882 00:20:15 Yes
54 Wessel Family Lofts - CA 3029-AU19-ARC BB H 1 08:19:59.70 58.676 00:23:56 Yes
55 Mike Belus - CA 0718-AU19-BPRC BC 1 2 08:21:04.80 56.628 00:25:01 Yes
56 Silicon Valley Syndicates - CA 19079-AU19-SVS BBWF H 3 08:21:05.30 56.613 00:25:01 Yes
57 Zack Jones - CA 1956-AU19-MTZ BC H 2 08:21:18.10 56.227 00:25:14 Yes
58 Pat Siino - CA 9126-AU19-COOK BB H 1 08:21:22.00 56.111 00:25:18 Yes
59 Wessel Family Lofts - CA 3027-AU19-ARC BB H 2 08:21:32.20 55.808 00:25:28 Yes
60 Jim Cain - CA 6529-AU19-FSC BC H 1 08:21:36.10 55.693 00:25:32 Yes
61 Darryl Coston - CA 1842-AU19-ARPU BC H 1 08:21:52.90 55.204 00:25:49 Yes
62 Skyruiz Loft - CA 0076-AU19-SKYR BB H 1 08:22:00.10 54.997 00:25:56 Yes
63 Silicon Valley Syndicates - CA 19075-AU19-SVS BB C 4 08:22:12.50 54.644 00:26:09 Yes
64 Joyce Stierlin - CA 19255-AU19-A BB C 1 08:24:04.80 51.643 00:28:01 Yes
65 Hayloft - CA 9217-AU19-GSF BB H 6 08:24:26.90 51.091 00:28:23 Yes
66 Dino D'ercole - CA 0507-AU19-SFR BB C 3 08:25:19.80 49.816 00:29:16 Yes
67 Steve Sterchi - CA 1919-AU19-SR BB H 2 08:25:29.70 49.584 00:29:26 Yes
68 De Vriend Lofts - CA 5773-AU19-FSC BC H 2 08:26:22.60 48.383 00:30:19 Yes
69 Joe Jauhal - CA 0132-AU19-WSJ BC C 1 08:26:49.60 47.791 00:30:46 Yes
70 Fernando Gonzalez - CA 1959-AU19-MTZ BC C 2 08:28:14.90 46.015 00:32:11 Yes
71 Hayloft - CA 9341-AU19-GSF BC C 7 08:28:55.30 45.219 00:32:51 Yes
72 John Partridge - CA 1642-AU19-PASO BB C 1 08:30:24.40 43.557 00:34:20 Yes
73 Hayloft - CA 9286-AU19-GSF BC C 8 08:30:30.60 43.446 00:34:27 Yes
74 Jeff Decker - CA 1922-AU19-JTD BB 0 1 08:31:06.70 42.810 00:35:03 Yes
75 De Vriend Lofts - CA 5739-AU19-FSC BC H 3 08:35:04.80 39.042 00:39:01 Yes
76 Dan Mello - CA 80274-AU19-MAN BC H 2 08:37:33.10 37.012 00:41:29 Yes
77 Brady Harper - CA 22533-AU19-ARPU BB H 2 08:37:35.20 36.985 00:41:31 Yes
78 Jim Vander Heide - CA 0131-AU19-OCF BCTK H 3 08:37:52.70 36.760 00:41:49 Yes
79 Barbara Shulman - CA 2555-AU19-WSJ BB C 1 08:38:13.90 36.491 00:42:10 Yes
80 Gold Star Loft - CA 1671-AU19-STON BB H 1 08:38:52.20 36.014 00:42:48 Yes
81 Steve Paine - CA 0439-AU19-HOP BB 0 1 08:41:14.70 34.345 00:45:11 Yes
82 Humberto Saenz - CA 9057-AU19-CGR BB H 2 08:41:40.90 34.055 00:45:37 Yes
83 Padilla - CA 0728-AU19-SFPC BB H 2 08:41:46.60 33.992 00:45:43 Yes
84 Frank Meder - CA 19046-AU19-TBW MLY C 1 08:42:50.90 33.303 00:46:47 Yes
85 Roger Revenaugh - CA 1332-AU19-MTZ BC H 1 08:43:05.40 33.151 00:47:01 Yes
86 Frank Meder - CA 19040-AU19-TBW BCWF C 2 08:44:35.60 32.238 00:48:32 Yes
87 Hung-Wen Hung - CA 19074-AU19-SVS BCWF C 4 08:44:54.50 32.053 00:48:51 Yes
88 Hayloft - CA 9304-AU19-GSF BC C 9 08:47:43.90 30.486 00:51:40 Yes
89 Fred Belus - CA 0249-AU19-BPRC BC H 1 08:48:03.30 30.316 00:51:59 Yes
90 Hayloft - CA 9258-AU19-GSF BCPD H 10 08:48:29.20 30.092 00:52:25 Yes
91 John Partridge - CA 1648-AU19-PASO BC H 2 08:49:23.20 29.636 00:53:19 Yes
92 Hayloft - CA 9347-AU19-GSF BB C 11 08:51:18.50 28.707 00:55:15 Yes
93 Duane Gragg - CA 0933-AU19-KEY BB H 2 08:53:52.20 27.556 00:57:48 Yes
94 Laszlo Zugor - CA 5304-AU19-SRP BC H 2 08:55:56.40 26.691 00:59:52 Yes
95 Grover Todd - CA 5004-AU19-FSC BB C 1 08:56:57.20 26.287 01:00:53 Yes
96 Steve Pereira - CA 2426-AU19-GSF BB C 1 09:00:29.20 24.969 01:04:25 Yes
97 John Karnofel - CA 0008-AU19-KFL BC H 1 09:00:30.60 24.961 01:04:27 Yes
98 Armando Lopez - CA 1300-AU19-CHP BCWF H 2 09:00:37.40 24.921 01:04:33 Yes
99 Marshall Jespersen - CA 3207-AU19-ARC BB C 2 09:02:45.60 24.189 01:06:42 Yes
100 Steve Sterchi - CA 0947-AU19-SR BB H 3 09:02:57.40 24.124 01:06:53 Yes

There are 237 bird records

Note: These Race Results are unofficial and subject to change until verified by the Race Committee and declared final.